createdAt,value
2022-11-19T00:02:03.419Z,99.99
2022-11-19T00:04:33.186Z,99.99
2022-11-19T00:07:01.718Z,99.99
2022-11-19T00:09:29.780Z,99.99
2022-11-19T00:12:15.412Z,99.99
2022-11-19T00:14:43.508Z,99.99
2022-11-19T00:17:11.505Z,99.99
2022-11-19T00:19:41.720Z,99.99
2022-11-19T00:22:09.657Z,99.99
2022-11-19T00:24:39.989Z,99.99
2022-11-19T00:27:07.962Z,99.99
2022-11-19T00:29:35.946Z,99.99
2022-11-19T00:32:04.350Z,99.99
2022-11-19T00:34:32.335Z,99.99
2022-11-19T00:37:02.185Z,99.99
2022-11-19T00:39:29.960Z,99.99
2022-11-19T00:41:57.877Z,99.99
2022-11-19T00:44:26.733Z,99.99
2022-11-19T00:46:54.638Z,99.99
2022-11-19T00:49:22.649Z,99.99
2022-11-19T00:51:52.644Z,99.99
2022-11-19T00:54:21.791Z,99.99
2022-11-19T00:56:50.139Z,99.99
2022-11-19T00:59:19.204Z,99.99
2022-11-19T01:01:47.289Z,99.99
2022-11-19T01:04:16.101Z,99.99
2022-11-19T01:06:44.022Z,99.99
2022-11-19T01:09:12.507Z,99.99
2022-11-19T01:11:42.887Z,99.99
2022-11-19T01:14:13.381Z,99.99
2022-11-19T01:16:43.350Z,99.99
2022-11-19T01:19:12.692Z,99.99
2022-11-19T01:21:40.663Z,99.99
2022-11-19T01:24:09.605Z,99.99
2022-11-19T01:26:40.561Z,99.99
2022-11-19T01:29:13.858Z,99.99
2022-11-19T01:31:42.706Z,99.99
2022-11-19T01:34:10.704Z,99.99
2022-11-19T01:36:39.164Z,99.99
2022-11-19T01:39:07.694Z,99.99
2022-11-19T01:41:36.823Z,99.99
2022-11-19T01:44:05.957Z,99.99
2022-11-19T01:46:38.036Z,99.99
2022-11-19T01:49:09.886Z,99.99
2022-11-19T01:52:03.342Z,99.99
2022-11-19T01:54:37.051Z,99.99
2022-11-19T01:57:10.118Z,99.99
2022-11-19T01:59:39.640Z,99.99
2022-11-19T02:02:09.668Z,99.99
2022-11-19T02:04:37.683Z,99.99
2022-11-19T02:07:07.608Z,99.99
2022-11-19T02:09:36.596Z,99.99
2022-11-19T02:12:16.017Z,99.99
2022-11-19T02:14:57.634Z,99.99
2022-11-19T02:17:44.146Z,99.99
2022-11-19T02:20:41.917Z,99.99
2022-11-19T02:23:33.313Z,99.99
2022-11-19T02:26:25.273Z,99.99
2022-11-19T02:28:57.032Z,99.99
2022-11-19T02:31:31.354Z,99.99
2022-11-19T02:34:05.645Z,99.99
2022-11-19T02:36:40.831Z,99.99
2022-11-19T02:39:14.381Z,99.99
2022-11-19T02:41:49.955Z,99.99
2022-11-19T02:44:40.755Z,99.99
2022-11-19T02:47:13.728Z,99.99
2022-11-19T02:49:44.566Z,99.99
2022-11-19T02:52:15.223Z,99.99
2022-11-19T02:54:43.304Z,99.99
2022-11-19T02:57:13.278Z,99.99
2022-11-19T03:00:02.645Z,99.99
2022-11-19T03:03:09.065Z,99.99
2022-11-19T03:05:42.758Z,99.99
2022-11-19T03:08:10.821Z,99.99
2022-11-19T03:10:49.386Z,99.99
2022-11-19T03:13:39.545Z,99.99
2022-11-19T03:16:39.623Z,99.99
2022-11-19T03:19:15.198Z,99.99
2022-11-19T03:21:50.352Z,99.99
2022-11-19T03:24:23.379Z,99.99
2022-11-19T03:26:57.958Z,99.99
2022-11-19T03:29:28.875Z,99.99
2022-11-19T03:32:02.074Z,99.99
2022-11-19T03:34:32.645Z,99.99
2022-11-19T03:37:02.923Z,99.99
2022-11-19T03:39:30.832Z,99.99
2022-11-19T03:41:59.042Z,99.99
2022-11-19T03:44:32.134Z,99.99
2022-11-19T03:47:03.742Z,99.99
2022-11-19T03:49:38.881Z,99.99
2022-11-19T03:52:11.917Z,99.99
2022-11-19T03:54:41.929Z,99.99
2022-11-19T03:57:13.328Z,99.99
2022-11-19T03:59:41.486Z,99.99
2022-11-19T04:02:11.581Z,99.99
2022-11-19T04:04:41.915Z,99.99
2022-11-19T04:07:12.122Z,99.99
2022-11-19T04:09:42.245Z,99.99
2022-11-19T04:12:16.417Z,99.99
2022-11-19T04:14:45.378Z,99.99
2022-11-19T04:17:14.089Z,99.99
2022-11-19T04:19:43.484Z,99.99
2022-11-19T04:22:11.471Z,99.99
2022-11-19T04:24:40.294Z,99.99
2022-11-19T04:27:08.197Z,99.99
2022-11-19T04:29:36.569Z,99.99
2022-11-19T04:32:04.968Z,99.99
2022-11-19T04:34:32.950Z,99.51
2022-11-19T04:37:02.223Z,99.95
2022-11-19T04:39:31.079Z,99.99
2022-11-19T04:41:58.976Z,99.99
2022-11-19T04:44:27.426Z,99.99
2022-11-19T04:46:55.727Z,99.99
2022-11-19T04:49:23.707Z,99.71
2022-11-19T04:51:51.614Z,99.99
2022-11-19T04:54:21.842Z,99.99
2022-11-19T04:56:49.791Z,99.99
2022-11-19T04:59:18.630Z,99.65
2022-11-19T05:01:47.188Z,99.99
2022-11-19T05:04:15.308Z,98.23
2022-11-19T05:06:43.753Z,99.70
2022-11-19T05:09:11.776Z,97.66
2022-11-19T05:11:41.105Z,98.17
2022-11-19T05:14:10.047Z,97.99
2022-11-19T05:16:37.943Z,98.69
2022-11-19T05:19:06.629Z,98.97
2022-11-19T05:21:34.935Z,98.08
2022-11-19T05:24:02.977Z,98.05
2022-11-19T05:26:30.895Z,96.56
2022-11-19T05:29:01.232Z,97.44
2022-11-19T05:31:29.625Z,98.14
2022-11-19T05:33:57.604Z,98.90
2022-11-19T05:36:26.375Z,97.17
2022-11-19T05:38:54.737Z,96.67
2022-11-19T05:41:22.648Z,96.57
2022-11-19T05:43:51.561Z,98.34
2022-11-19T05:46:21.834Z,98.13
2022-11-19T05:48:49.721Z,99.23
2022-11-19T05:51:18.925Z,99.51
2022-11-19T05:53:46.865Z,99.41
2022-11-19T05:56:15.278Z,99.81
2022-11-19T05:58:43.615Z,99.99
2022-11-19T06:01:11.713Z,99.30
2022-11-19T06:03:42.034Z,99.99
2022-11-19T06:06:09.998Z,99.99
2022-11-19T06:08:37.900Z,99.73
2022-11-19T06:11:07.014Z,99.79
2022-11-19T06:13:34.907Z,99.99
2022-11-19T06:16:03.650Z,99.99
2022-11-19T06:18:31.504Z,99.82
2022-11-19T06:21:01.348Z,99.91
2022-11-19T06:23:29.663Z,99.99
2022-11-19T06:25:58.177Z,99.99
2022-11-19T06:28:26.499Z,99.99
2022-11-19T06:30:54.548Z,99.99
2022-11-19T06:33:23.019Z,99.99
2022-11-19T06:35:51.254Z,99.96
2022-11-19T06:38:20.739Z,99.90
2022-11-19T06:40:49.366Z,99.99
2022-11-19T06:43:17.290Z,99.99
2022-11-19T06:45:45.756Z,99.99
2022-11-19T06:48:14.060Z,99.99
2022-11-19T06:50:42.473Z,99.99
2022-11-19T06:53:10.821Z,99.99
2022-11-19T06:55:40.223Z,99.99
2022-11-19T06:58:09.350Z,99.99
2022-11-19T07:00:39.368Z,99.99
2022-11-19T07:03:07.753Z,99.99
2022-11-19T07:05:36.580Z,99.99
2022-11-19T07:08:04.531Z,99.99
2022-11-19T07:10:33.804Z,99.99
2022-11-19T07:13:03.774Z,99.99
2022-11-19T07:15:31.883Z,99.99
2022-11-19T07:17:59.785Z,99.99
2022-11-19T07:20:30.543Z,99.99
2022-11-19T07:22:59.498Z,99.99
2022-11-19T07:25:28.184Z,98.37
2022-11-19T07:27:56.565Z,98.10
2022-11-19T07:30:26.042Z,97.61
2022-11-19T07:32:54.993Z,96.71
2022-11-19T07:35:22.986Z,97.20
2022-11-19T07:37:50.893Z,97.78
2022-11-19T07:40:20.084Z,99.36
2022-11-19T07:42:49.659Z,98.44
2022-11-19T07:45:20.831Z,98.57
2022-11-19T07:47:50.948Z,98.49
2022-11-19T07:50:19.515Z,98.84
2022-11-19T07:52:47.903Z,98.31
2022-11-19T07:55:15.950Z,98.07
2022-11-19T07:57:44.440Z,98.58
2022-11-19T08:00:13.773Z,98.36
2022-11-19T08:02:43.047Z,98.60
2022-11-19T08:05:12.999Z,97.76
2022-11-19T08:07:40.976Z,98.30
2022-11-19T08:10:10.196Z,97.54
2022-11-19T08:12:39.035Z,97.91
2022-11-19T08:15:07.964Z,97.75
2022-11-19T08:17:54.569Z,96.25
2022-11-19T08:20:23.901Z,96.43
2022-11-19T08:22:52.930Z,96.24
2022-11-19T08:25:21.775Z,95.21
2022-11-19T08:27:49.719Z,95.84
2022-11-19T08:30:18.115Z,95.81
2022-11-19T08:32:46.694Z,94.80
2022-11-19T08:35:15.636Z,96.24
2022-11-19T08:37:44.954Z,95.25
2022-11-19T08:40:13.927Z,94.75
2022-11-19T08:42:59.052Z,94.37
2022-11-19T08:45:29.348Z,94.97
2022-11-19T08:47:57.682Z,94.99
2022-11-19T08:50:26.081Z,94.84
2022-11-19T08:52:57.994Z,94.22
2022-11-19T08:55:27.366Z,93.92
2022-11-19T08:58:01.476Z,94.80
2022-11-19T09:00:30.231Z,94.56
2022-11-19T09:02:58.472Z,95.03
2022-11-19T09:05:27.126Z,93.81
2022-11-19T09:07:57.549Z,94.01
2022-11-19T09:10:26.253Z,93.60
2022-11-19T09:12:54.478Z,94.86
2022-11-19T09:15:23.111Z,93.09
2022-11-19T09:17:51.591Z,93.79
2022-11-19T09:20:19.780Z,93.75
2022-11-19T09:22:47.700Z,94.45
2022-11-19T09:25:17.966Z,94.16
2022-11-19T09:27:45.772Z,92.08
2022-11-19T09:30:15.182Z,91.71
2022-11-19T09:32:43.791Z,91.02
2022-11-19T09:35:11.693Z,91.48
2022-11-19T09:37:40.518Z,91.94
2022-11-19T09:40:11.813Z,91.56
2022-11-19T09:42:50.974Z,92.09
2022-11-19T09:45:23.807Z,89.47
2022-11-19T09:48:11.627Z,89.24
2022-11-19T09:50:53.227Z,89.06
2022-11-19T09:53:26.033Z,88.63
2022-11-19T09:55:55.033Z,88.67
2022-11-19T09:58:29.595Z,88.01
2022-11-19T10:01:00.285Z,88.30
2022-11-19T10:03:33.507Z,89.26
2022-11-19T10:06:25.447Z,87.97
2022-11-19T10:09:19.714Z,87.00
2022-11-19T10:12:12.171Z,87.97
2022-11-19T10:14:56.934Z,87.48
2022-11-19T10:17:35.088Z,86.71
2022-11-19T10:20:19.492Z,85.42
2022-11-19T10:22:57.123Z,86.79
2022-11-19T10:25:30.968Z,86.17
2022-11-19T10:28:10.580Z,84.05
2022-11-19T10:30:41.979Z,84.56
2022-11-19T10:33:17.145Z,85.22
2022-11-19T10:35:49.878Z,87.48
2022-11-19T10:38:22.935Z,85.80
2022-11-19T10:40:56.555Z,85.67
2022-11-19T10:43:29.963Z,84.54
2022-11-19T10:46:02.451Z,84.16
2022-11-19T10:48:38.739Z,85.15
2022-11-19T10:51:14.940Z,85.60
2022-11-19T10:53:43.591Z,85.52
2022-11-19T10:56:15.636Z,84.44
2022-11-19T10:58:48.133Z,85.30
2022-11-19T11:01:27.058Z,84.47
2022-11-19T11:04:05.581Z,84.67
2022-11-19T11:06:51.790Z,84.12
2022-11-19T11:09:33.460Z,84.01
2022-11-19T11:12:28.776Z,83.03
2022-11-19T11:15:02.036Z,83.37
2022-11-19T11:17:35.748Z,84.01
2022-11-19T11:20:06.608Z,83.10
2022-11-19T11:22:37.791Z,82.31
2022-11-19T11:25:20.632Z,81.68
2022-11-19T11:28:07.481Z,82.15
2022-11-19T11:30:36.046Z,82.15
2022-11-19T11:33:27.586Z,81.82
2022-11-19T11:35:58.634Z,81.98
2022-11-19T11:38:28.391Z,79.47
2022-11-19T11:44:02.810Z,79.49
2022-11-19T11:46:41.653Z,78.99
2022-11-19T11:49:25.699Z,80.54
2022-11-19T11:52:08.332Z,78.90
2022-11-19T11:54:38.376Z,79.27
2022-11-19T11:57:17.051Z,79.78
2022-11-19T11:59:46.363Z,80.01
2022-11-19T12:02:22.701Z,79.24
2022-11-19T12:04:55.288Z,79.03
2022-11-19T12:07:38.559Z,79.01
2022-11-19T12:10:22.221Z,79.44
2022-11-19T12:13:15.923Z,80.96
2022-11-19T12:15:54.346Z,81.36
2022-11-19T12:18:33.095Z,82.68
2022-11-19T12:21:11.955Z,80.57
2022-11-19T12:23:59.212Z,80.84
2022-11-19T12:26:37.234Z,81.33
2022-11-19T12:29:15.457Z,80.90
2022-11-19T12:32:07.837Z,80.56
2022-11-19T12:34:55.294Z,80.83
2022-11-19T12:37:39.370Z,80.71
2022-11-19T12:40:21.609Z,80.84
2022-11-19T12:42:58.494Z,81.12
2022-11-19T12:45:37.959Z,78.88
2022-11-19T12:48:31.680Z,79.42
2022-11-19T12:51:09.824Z,78.94
2022-11-19T12:53:58.032Z,77.28
2022-11-19T12:56:36.982Z,74.81
2022-11-19T12:59:21.722Z,73.44
2022-11-19T13:01:53.427Z,71.42
2022-11-19T13:04:28.825Z,70.10
2022-11-19T13:07:02.477Z,70.39
2022-11-19T13:09:36.928Z,69.68
2022-11-19T13:12:08.457Z,69.91
2022-11-19T13:14:42.166Z,68.29
2022-11-19T13:17:18.557Z,69.60
2022-11-19T13:19:52.824Z,68.80
2022-11-19T13:22:22.950Z,67.99
2022-11-19T13:24:56.117Z,67.94
2022-11-19T13:27:29.992Z,69.74
2022-11-19T13:30:04.905Z,70.10
2022-11-19T13:32:39.905Z,71.05
2022-11-19T13:35:18.752Z,73.66
2022-11-19T13:37:58.205Z,74.20
2022-11-19T13:40:33.868Z,72.27
2022-11-19T13:43:35.421Z,71.70
2022-11-19T13:46:10.266Z,73.54
2022-11-19T13:48:41.973Z,76.42
2022-11-19T13:51:31.326Z,76.02
2022-11-19T13:54:07.287Z,76.44
2022-11-19T13:56:43.979Z,76.29
2022-11-19T13:59:28.109Z,76.15
2022-11-19T14:02:06.242Z,76.67
2022-11-19T14:05:01.441Z,77.94
2022-11-19T14:07:48.438Z,76.98
2022-11-19T14:10:23.624Z,77.58
2022-11-19T14:13:09.922Z,77.45
2022-11-19T14:16:06.792Z,76.84
2022-11-19T14:18:56.200Z,77.56
2022-11-19T14:22:15.361Z,78.39
2022-11-19T14:25:26.914Z,80.84
2022-11-19T14:27:55.036Z,80.21
2022-11-19T14:31:04.203Z,81.36
2022-11-19T14:33:44.722Z,79.80
2022-11-19T14:36:13.604Z,80.30
2022-11-19T14:38:46.085Z,81.49
2022-11-19T14:41:23.911Z,81.96
2022-11-19T14:44:18.993Z,83.24
2022-11-19T14:46:50.862Z,82.03
2022-11-19T14:49:36.011Z,82.05
2022-11-19T14:52:04.755Z,82.07
2022-11-19T14:54:40.735Z,82.23
2022-11-19T14:57:18.121Z,83.97
2022-11-19T14:59:49.890Z,84.44
2022-11-19T15:02:25.220Z,85.22
2022-11-19T15:04:59.242Z,85.65
2022-11-19T15:07:39.968Z,85.40
2022-11-19T15:10:33.955Z,85.65
2022-11-19T15:13:36.523Z,85.86
2022-11-19T15:16:12.712Z,85.64
2022-11-19T15:19:21.339Z,85.67
2022-11-19T15:22:21.691Z,86.69
2022-11-19T15:25:04.652Z,88.27
2022-11-19T15:27:46.643Z,88.84
2022-11-19T15:30:19.388Z,89.46
2022-11-19T15:33:16.475Z,87.91
2022-11-19T15:36:12.790Z,89.17
2022-11-19T15:38:44.829Z,89.94
2022-11-19T15:41:17.021Z,89.23
2022-11-19T15:43:48.038Z,90.63
2022-11-19T15:46:27.381Z,92.20
2022-11-19T15:49:28.566Z,91.76
2022-11-19T15:52:05.706Z,91.17
2022-11-19T15:54:35.025Z,91.04
2022-11-19T15:57:06.198Z,90.96
2022-11-19T15:59:37.344Z,91.82
2022-11-19T16:02:20.798Z,90.55
2022-11-19T16:04:50.797Z,91.91
2022-11-19T16:07:26.404Z,91.95
2022-11-19T16:09:55.090Z,93.27
2022-11-19T16:12:42.391Z,94.41
2022-11-19T16:15:37.379Z,94.53
2022-11-19T16:18:13.281Z,94.26
2022-11-19T16:20:42.803Z,95.17
2022-11-19T16:23:13.497Z,95.10
2022-11-19T16:25:43.113Z,95.46
2022-11-19T16:28:15.009Z,96.77
2022-11-19T16:30:46.385Z,96.35
2022-11-19T16:33:22.273Z,96.31
2022-11-19T16:35:53.104Z,95.96
2022-11-19T16:38:29.146Z,96.03
2022-11-19T16:41:15.294Z,96.37
2022-11-19T16:43:48.781Z,96.70
2022-11-19T16:46:21.572Z,96.65
2022-11-19T16:49:00.619Z,97.08
2022-11-19T16:51:40.320Z,97.26
2022-11-19T16:54:12.334Z,96.25
2022-11-19T16:56:45.641Z,95.34
2022-11-19T16:59:21.059Z,94.61
2022-11-19T17:01:55.941Z,95.12
2022-11-19T17:04:28.149Z,96.13
2022-11-19T17:06:57.950Z,96.12
2022-11-19T17:09:42.338Z,97.72
2022-11-19T17:12:28.014Z,97.41
2022-11-19T17:14:58.663Z,96.23
2022-11-19T17:17:41.115Z,96.22
2022-11-19T17:20:50.423Z,96.11
2022-11-19T17:23:20.336Z,95.78
2022-11-19T17:25:54.001Z,95.55
2022-11-19T17:28:26.907Z,95.83
2022-11-19T17:30:56.272Z,96.42
2022-11-19T17:33:24.814Z,96.80
2022-11-19T17:35:53.441Z,96.33
2022-11-19T17:38:25.336Z,95.47
2022-11-19T17:40:57.630Z,95.55
2022-11-19T17:43:51.368Z,95.55
2022-11-19T17:46:20.327Z,96.37
2022-11-19T17:48:49.645Z,95.75
2022-11-19T17:51:21.211Z,95.67
2022-11-19T17:53:51.229Z,96.54
2022-11-19T17:56:22.776Z,96.39
2022-11-19T17:58:51.284Z,95.73
2022-11-19T18:01:19.736Z,96.44
2022-11-19T18:03:49.005Z,97.15
2022-11-19T18:06:18.983Z,96.28
2022-11-19T18:08:47.601Z,96.65
2022-11-19T18:11:17.764Z,96.47
2022-11-19T18:13:53.070Z,95.61
2022-11-19T18:16:29.234Z,96.89
2022-11-19T18:18:58.225Z,97.54
2022-11-19T18:21:29.063Z,97.02
2022-11-19T18:24:00.088Z,97.20
2022-11-19T18:26:29.269Z,97.66
2022-11-19T18:28:58.749Z,96.53
2022-11-19T18:31:29.004Z,96.17
2022-11-19T18:33:58.202Z,96.81
2022-11-19T18:36:26.652Z,97.27
2022-11-19T18:38:57.131Z,97.18
2022-11-19T18:41:25.201Z,96.59
2022-11-19T18:44:11.167Z,96.90
2022-11-19T18:46:40.671Z,96.37
2022-11-19T18:49:08.648Z,97.10
2022-11-19T18:51:37.414Z,98.04
2022-11-19T18:54:05.373Z,98.64
2022-11-19T18:56:33.788Z,98.78
2022-11-19T18:59:04.911Z,97.74
2022-11-19T19:01:34.375Z,97.20
2022-11-19T19:04:03.757Z,98.51
2022-11-19T19:06:33.751Z,99.10
2022-11-19T19:09:01.701Z,97.82
2022-11-19T19:11:47.150Z,96.87
2022-11-19T19:14:16.235Z,98.10
2022-11-19T19:16:44.164Z,98.23
2022-11-19T19:19:16.282Z,97.81
2022-11-19T19:21:44.334Z,97.08
2022-11-19T19:24:13.003Z,96.35
2022-11-19T19:26:41.055Z,96.41
2022-11-19T19:29:09.559Z,97.51
2022-11-19T19:31:38.565Z,97.50
2022-11-19T19:34:06.508Z,97.76
2022-11-19T19:36:36.867Z,97.81
2022-11-19T19:39:05.013Z,97.07
2022-11-19T19:41:33.541Z,97.14
2022-11-19T19:44:04.227Z,98.05
2022-11-19T19:46:33.714Z,97.56
2022-11-19T19:49:02.598Z,97.75
2022-11-19T19:51:31.570Z,98.32
2022-11-19T19:54:01.554Z,98.30
2022-11-19T19:56:31.780Z,97.86
2022-11-19T19:59:00.567Z,97.64
2022-11-19T20:01:30.463Z,97.86
2022-11-19T20:04:02.314Z,97.51
2022-11-19T20:06:31.503Z,97.64
2022-11-19T20:09:02.131Z,97.63
2022-11-19T20:11:35.821Z,97.92
2022-11-19T20:14:03.858Z,98.04
2022-11-19T20:16:33.928Z,98.08
2022-11-19T20:19:03.312Z,98.11
2022-11-19T20:21:34.155Z,99.61
2022-11-19T20:24:06.051Z,99.51
2022-11-19T20:26:41.542Z,99.09
2022-11-19T20:29:13.607Z,98.30
2022-11-19T20:31:45.955Z,97.85
2022-11-19T20:34:15.428Z,98.50
2022-11-19T20:36:44.148Z,99.18
2022-11-19T20:39:12.684Z,98.98
2022-11-19T20:42:00.367Z,99.26
2022-11-19T20:44:28.428Z,99.99
2022-11-19T20:46:57.867Z,99.96
2022-11-19T20:49:27.057Z,99.56
2022-11-19T20:51:55.754Z,99.09
2022-11-19T20:54:24.293Z,98.92
2022-11-19T20:56:55.532Z,98.83
2022-11-19T20:59:25.667Z,97.96
2022-11-19T21:01:55.675Z,98.06
2022-11-19T21:04:24.900Z,97.95
2022-11-19T21:06:53.870Z,98.47
2022-11-19T21:09:23.094Z,98.69
2022-11-19T21:11:51.458Z,99.44
2022-11-19T21:14:21.270Z,99.74
2022-11-19T21:16:49.749Z,99.06
2022-11-19T21:19:17.725Z,99.16
2022-11-19T21:21:46.314Z,97.76
2022-11-19T21:24:15.949Z,97.95
2022-11-19T21:26:44.078Z,98.17
2022-11-19T21:29:13.055Z,98.89
2022-11-19T21:31:44.488Z,98.86
2022-11-19T21:34:15.077Z,98.92
2022-11-19T21:36:44.143Z,98.98
2022-11-19T21:39:14.110Z,99.99
2022-11-19T21:41:42.874Z,99.99
2022-11-19T21:44:13.270Z,99.99
2022-11-19T21:46:46.844Z,99.99
2022-11-19T21:49:14.782Z,98.49
2022-11-19T21:51:43.733Z,98.51
2022-11-19T21:54:11.717Z,98.79
2022-11-19T21:56:39.612Z,99.89
2022-11-19T21:59:08.293Z,99.43
2022-11-19T22:01:36.529Z,99.99
2022-11-19T22:04:06.732Z,99.99
2022-11-19T22:06:35.741Z,99.20
2022-11-19T22:09:03.845Z,99.05
2022-11-19T22:11:32.846Z,99.33
2022-11-19T22:14:02.822Z,99.99
2022-11-19T22:16:32.754Z,99.99
2022-11-19T22:19:00.800Z,99.97
2022-11-19T22:21:30.643Z,99.75
2022-11-19T22:23:58.937Z,99.99
2022-11-19T22:26:27.737Z,99.99
2022-11-19T22:28:56.169Z,99.99
2022-11-19T22:31:24.803Z,99.38
2022-11-19T22:33:53.921Z,98.92
2022-11-19T22:36:23.673Z,99.06
2022-11-19T22:38:53.932Z,98.82
2022-11-19T22:41:23.146Z,98.75
2022-11-19T22:43:51.425Z,98.16
2022-11-19T22:46:20.657Z,99.61
2022-11-19T22:48:49.256Z,99.96
2022-11-19T22:51:20.470Z,99.82
2022-11-19T22:53:48.984Z,99.44
2022-11-19T22:56:20.622Z,99.50
2022-11-19T22:58:49.017Z,98.89
2022-11-19T23:01:19.061Z,99.14
2022-11-19T23:03:48.052Z,99.99
2022-11-19T23:06:16.315Z,99.49
2022-11-19T23:08:46.487Z,99.18
2022-11-19T23:11:16.816Z,99.13
2022-11-19T23:13:45.431Z,98.73
2022-11-19T23:16:15.155Z,98.74
2022-11-19T23:18:48.440Z,99.36
2022-11-19T23:21:19.365Z,99.47
2022-11-19T23:23:50.775Z,99.99
2022-11-19T23:26:21.152Z,99.99
2022-11-19T23:28:51.132Z,99.99
2022-11-19T23:31:20.346Z,99.99
2022-11-19T23:33:54.475Z,99.27
2022-11-19T23:36:27.435Z,99.99
2022-11-19T23:38:56.216Z,99.77
2022-11-19T23:41:24.508Z,99.99
2022-11-19T23:43:54.690Z,99.78
2022-11-19T23:46:25.116Z,99.54
2022-11-19T23:48:53.336Z,99.77
2022-11-19T23:51:24.935Z,99.99
2022-11-19T23:53:53.001Z,99.99
2022-11-19T23:56:23.225Z,99.99
2022-11-19T23:58:51.619Z,99.99
